Time;durP1;ratioP1;P1;durP2;ratioP2;P2;SDS_P1;SDS_P2;PMS_P1;PMS_P2;Temp;Humidity;BMP_temperature;BMP_pressure;BME280_temperature;BME280_humidity;BME280_pressure;Samples;Min_cycle;Max_cycle;Signal;HPM_P1;HPM_P2
2022/08/03 00:01:08;;;;;;;4.70;1.20;;;16.20;55.70;;;;;;5044494;28;20184;-75
2022/08/03 00:03:35;;;;;;;4.47;1.10;;;16.10;56.10;;;;;;5029710;28;20295;-77
2022/08/03 00:06:03;;;;;;;2.53;1.30;;;16.00;56.20;;;;;;5035068;28;20190;-72
2022/08/03 00:08:30;;;;;;;2.73;1.33;;;16.10;56.70;;;;;;5040824;28;20256;-74
2022/08/03 00:10:58;;;;;;;2.33;1.30;;;16.10;56.70;;;;;;5028618;28;20642;-78
2022/08/03 00:13:25;;;;;;;2.50;1.30;;;16.10;56.70;;;;;;5030952;28;20290;-79
2022/08/03 00:15:53;;;;;;;3.87;1.10;;;16.10;56.70;;;;;;5032174;28;20290;-80
2022/08/03 00:18:21;;;;;;;1.00;0.90;;;16.10;57.00;;;;;;5034247;28;20177;-76
2022/08/03 00:21:14;;;;;;;2.43;1.00;;;16.20;56.70;;;;;;5021256;28;20188;-80
2022/08/03 00:23:42;;;;;;;2.47;1.10;;;16.20;56.90;;;;;;4996579;28;20226;-80
2022/08/03 00:26:23;;;;;;;5.33;1.50;;;16.20;56.80;;;;;;5013919;28;20174;-83
2022/08/03 00:28:57;;;;;;;6.37;1.40;;;16.20;56.80;;;;;;5035158;28;20183;-85
2022/08/03 00:31:31;;;;;;;2.90;1.37;;;16.20;56.60;;;;;;5017173;28;20192;-81
2022/08/03 00:33:58;;;;;;;3.97;1.43;;;16.30;56.60;;;;;;5016726;28;20173;-82
2022/08/03 00:36:32;;;;;;;3.43;1.87;;;16.30;56.60;;;;;;5030427;28;20278;-79
2022/08/03 00:39:00;;;;;;;7.60;1.73;;;16.40;55.60;;;;;;5040400;28;20224;-81
2022/08/03 00:41:28;;;;;;;3.87;1.80;;;16.50;55.90;;;;;;5044542;28;20524;-77
2022/08/03 00:44:16;;;;;;;2.90;1.10;;;16.60;56.20;;;;;;5042456;28;20187;-81
2022/08/03 00:47:01;;;;;;;3.20;1.20;;;16.60;55.50;;;;;;5048052;28;20538;-81
2022/08/03 00:49:42;;;;;;;4.83;1.17;;;16.60;56.00;;;;;;5051654;28;20525;-80
2022/08/03 00:52:13;;;;;;;5.63;1.20;;;16.70;56.20;;;;;;5040352;28;20190;-84
2022/08/03 00:54:41;;;;;;;3.60;1.10;;;16.80;56.10;;;;;;5042120;28;20200;-79
2022/08/03 00:57:14;;;;;;;4.27;1.13;;;16.80;56.00;;;;;;5037714;28;20185;-80
2022/08/03 00:59:42;;;;;;;2.70;1.30;;;16.80;55.90;;;;;;5033234;28;20194;-87
2022/08/03 01:02:18;;;;;;;3.93;1.10;;;16.80;56.50;;;;;;5032244;28;20541;-81
2022/08/03 01:04:45;;;;;;;2.50;1.13;;;16.90;56.20;;;;;;5033747;28;20618;-76
2022/08/03 01:07:36;;;;;;;5.27;1.60;;;17.00;56.30;;;;;;5032113;28;20187;-81
2022/08/03 01:10:48;;;;;;;1.43;1.07;;;17.00;56.20;;;;;;5041993;28;20199;-79
2022/08/03 01:13:31;;;;;;;3.03;1.37;;;17.20;56.30;;;;;;5021703;28;20703;-78
2022/08/03 01:16:09;;;;;;;8.77;1.63;;;17.30;55.80;;;;;;5036837;28;20728;-79
2022/08/03 01:18:51;;;;;;;4.07;1.17;;;17.30;55.90;;;;;;5028903;28;20665;-78
2022/08/03 01:21:31;;;;;;;2.83;1.20;;;17.30;55.80;;;;;;5029867;28;20646;-78
2022/08/03 01:24:08;;;;;;;4.10;1.10;;;17.40;55.70;;;;;;5039839;28;20218;-81
2022/08/03 01:26:44;;;;;;;2.60;1.00;;;17.60;55.90;;;;;;5033647;28;20187;-76
2022/08/03 01:29:40;;;;;;;5.33;1.40;;;17.80;55.40;;;;;;5015091;28;20649;-82
2022/08/03 01:32:24;;;;;;;1.67;1.10;;;18.20;55.00;;;;;;5043424;28;20175;-78
2022/08/03 01:35:00;;;;;;;2.53;1.17;;;18.30;54.00;;;;;;5044529;28;20187;-75
2022/08/03 01:37:40;;;;;;;6.80;1.20;;;18.60;54.00;;;;;;5030888;28;20207;-80
2022/08/03 01:40:10;;;;;;;3.57;1.00;;;18.90;53.10;;;;;;5038575;28;20235;-74
2022/08/03 01:42:39;;;;;;;4.13;1.10;;;19.10;53.10;;;;;;5033429;28;20246;-76
2022/08/03 01:45:09;;;;;;;2.13;1.07;;;19.50;52.10;;;;;;5040955;28;20634;-78
2022/08/03 01:47:37;;;;;;;1.43;1.00;;;19.60;52.20;;;;;;5043124;28;20189;-78
2022/08/03 01:50:06;;;;;;;5.10;0.90;;;20.20;51.60;;;;;;5033576;28;20642;-81
2022/08/03 01:52:35;;;;;;;5.03;1.07;;;20.50;50.70;;;;;;5034690;28;20187;-81
2022/08/03 01:55:04;;;;;;;8.83;1.27;;;20.40;50.70;;;;;;5037494;28;20180;-81
2022/08/03 01:57:33;;;;;;;2.77;1.07;;;20.70;50.20;;;;;;5025487;28;20187;-79
2022/08/03 02:00:01;;;;;;;2.20;0.90;;;21.00;49.10;;;;;;5027753;28;20238;-74
2022/08/03 02:02:31;;;;;;;1.80;0.97;;;20.80;49.10;;;;;;5043947;28;20230;-73
2022/08/03 02:04:59;;;;;;;5.10;1.00;;;20.90;49.20;;;;;;5033380;28;20184;-71
2022/08/03 02:07:28;;;;;;;4.40;0.80;;;21.10;48.60;;;;;;5024319;28;20180;-74
2022/08/03 02:09:57;;;;;;;3.00;0.93;;;21.20;48.50;;;;;;5036963;28;20235;-78
2022/08/03 02:12:26;;;;;;;4.83;0.70;;;21.30;48.20;;;;;;5046109;28;20241;-84
2022/08/03 02:14:55;;;;;;;8.10;1.27;;;21.30;48.30;;;;;;5053484;28;20195;-73
2022/08/03 02:17:24;;;;;;;1.30;0.80;;;21.30;48.90;;;;;;5047218;28;20180;-76
2022/08/03 02:19:53;;;;;;;1.90;1.10;;;21.30;48.40;;;;;;5036729;28;20176;-75
2022/08/03 02:22:22;;;;;;;5.87;1.20;;;21.50;48.00;;;;;;5049813;28;20229;-75
2022/08/03 02:24:49;;;;;;;3.50;0.93;;;21.60;48.40;;;;;;5044409;28;20290;-79
2022/08/03 02:27:29;;;;;;;2.20;0.90;;;21.60;47.60;;;;;;5048081;28;21126;-74
2022/08/03 02:30:08;;;;;;;2.23;0.97;;;21.70;48.00;;;;;;5044909;28;20191;-73
2022/08/03 02:32:38;;;;;;;2.43;0.93;;;21.70;47.80;;;;;;5050714;28;20405;-74
2022/08/03 02:35:11;;;;;;;4.07;1.03;;;21.70;47.90;;;;;;5043217;28;20203;-74
2022/08/03 02:37:45;;;;;;;2.20;0.70;;;21.80;47.70;;;;;;5029964;28;20188;-74
2022/08/03 02:40:14;;;;;;;4.67;1.33;;;21.90;47.50;;;;;;5043693;28;20200;-75
2022/08/03 02:42:43;;;;;;;1.53;0.93;;;22.10;47.40;;;;;;5027705;28;20236;-81
2022/08/03 02:45:12;;;;;;;1.47;0.80;;;22.00;47.70;;;;;;5032635;28;20650;-79
2022/08/03 02:47:42;;;;;;;2.10;0.87;;;22.10;47.40;;;;;;5037155;28;20172;-80
2022/08/03 02:50:12;;;;;;;2.37;1.10;;;22.30;47.40;;;;;;5054887;28;20203;-76
2022/08/03 02:52:41;;;;;;;4.17;1.27;;;22.50;47.30;;;;;;5032649;28;20639;-80
2022/08/03 02:55:11;;;;;;;3.07;0.80;;;22.70;47.10;;;;;;5033900;28;20246;-76
2022/08/03 02:57:39;;;;;;;3.00;1.00;;;22.80;46.10;;;;;;5033600;28;20706;-76
2022/08/03 03:00:08;;;;;;;4.67;1.20;;;22.70;46.30;;;;;;5027758;28;20224;-77
2022/08/03 03:02:37;;;;;;;3.20;1.00;;;22.80;46.50;;;;;;5040262;28;20196;-79
2022/08/03 03:05:05;;;;;;;3.77;1.10;;;22.60;46.70;;;;;;5037000;28;20184;-77
2022/08/03 03:07:35;;;;;;;2.50;0.90;;;22.80;46.80;;;;;;5028864;28;20630;-81
2022/08/03 03:10:04;;;;;;;1.20;0.80;;;22.60;47.00;;;;;;5033524;28;20171;-78
2022/08/03 03:12:34;;;;;;;2.50;0.90;;;22.80;46.90;;;;;;5045280;28;20184;-75
2022/08/03 03:15:01;;;;;;;4.03;0.93;;;22.60;46.90;;;;;;5049277;28;20185;-81
2022/08/03 03:17:32;;;;;;;6.80;0.90;;;22.70;47.00;;;;;;5046093;28;20188;-76
2022/08/03 03:20:00;;;;;;;2.50;1.00;;;23.00;46.50;;;;;;5033970;28;20188;-81
2022/08/03 03:22:28;;;;;;;1.03;0.73;;;23.20;46.20;;;;;;5033414;28;20211;-76
2022/08/03 03:24:56;;;;;;;4.33;1.00;;;22.80;47.30;;;;;;5052409;28;20217;-76
2022/08/03 03:27:23;;;;;;;1.50;0.70;;;22.80;46.90;;;;;;5035602;28;20200;-76
2022/08/03 03:29:51;;;;;;;2.60;0.97;;;23.10;46.20;;;;;;5045263;28;20180;-80
2022/08/03 03:32:18;;;;;;;5.77;1.20;;;23.30;46.20;;;;;;5054497;28;20622;-76
2022/08/03 03:34:47;;;;;;;4.53;0.93;;;23.70;45.60;;;;;;5054621;28;20634;-75
2022/08/03 03:37:14;;;;;;;1.60;1.10;;;23.60;45.40;;;;;;5054320;28;20210;-74
2022/08/03 03:39:42;;;;;;;2.13;0.80;;;23.80;45.50;;;;;;5029324;28;20371;-73
2022/08/03 03:42:09;;;;;;;5.27;1.23;;;24.20;44.20;;;;;;5046796;28;20200;-76
2022/08/03 03:44:36;;;;;;;1.87;1.10;;;24.20;44.60;;;;;;5054155;28;20180;-75
2022/08/03 03:47:04;;;;;;;7.40;0.90;;;24.10;44.40;;;;;;5054100;28;20698;-75
2022/08/03 03:49:32;;;;;;;1.33;0.93;;;24.20;44.80;;;;;;5053981;28;20322;-73
2022/08/03 03:51:59;;;;;;;1.30;0.80;;;24.60;43.30;;;;;;5053762;28;20274;-72
2022/08/03 03:54:38;;;;;;;4.63;1.10;;;24.70;43.30;;;;;;5043770;28;20183;-74
2022/08/03 03:57:05;;;;;;;1.87;0.70;;;24.60;43.50;;;;;;5040344;28;20181;-74
2022/08/03 03:59:32;;;;;;;4.40;1.17;;;24.30;44.20;;;;;;5043724;28;20670;-78
2022/08/03 04:02:00;;;;;;;5.77;0.80;;;24.10;44.30;;;;;;5032175;28;20670;-78
2022/08/03 04:12:44;;;;;;;1.97;0.93;;;24.70;43.10;;;;;;5042220;28;20197;-78
2022/08/03 04:15:13;;;;;;;5.20;0.70;;;25.30;42.50;;;;;;5048580;28;20556;-77
2022/08/03 04:17:42;;;;;;;1.07;0.67;;;25.40;41.80;;;;;;5026550;28;20181;-81
2022/08/03 04:20:10;;;;;;;2.57;0.83;;;25.00;42.50;;;;;;5033548;28;20351;-76
2022/08/03 04:22:39;;;;;;;1.77;0.80;;;25.20;42.50;;;;;;5046231;28;20815;-78
2022/08/03 04:25:13;;;;;;;2.13;0.90;;;25.40;42.40;;;;;;5035857;28;20237;-75
2022/08/03 04:27:42;;;;;;;2.00;0.80;;;25.80;41.20;;;;;;5041095;28;20180;-75
2022/08/03 04:30:10;;;;;;;2.63;0.80;;;25.80;40.80;;;;;;5024552;28;20184;-77
2022/08/03 04:32:39;;;;;;;3.57;0.80;;;25.80;41.20;;;;;;5031992;28;20203;-75
2022/08/03 04:35:07;;;;;;;1.70;0.80;;;25.90;41.10;;;;;;5026862;28;20188;-76
2022/08/03 04:37:47;;;;;;;5.03;0.67;;;25.50;42.40;;;;;;5046078;28;20307;-75
2022/08/03 04:40:26;;;;;;;5.43;0.80;;;26.00;41.80;;;;;;5033955;28;20232;-74
2022/08/03 04:42:55;;;;;;;1.03;0.73;;;26.40;40.20;;;;;;5040669;28;20257;-74
2022/08/03 04:45:27;;;;;;;2.67;0.90;;;26.50;40.30;;;;;;5034750;28;20203;-76
2022/08/03 04:47:55;;;;;;;0.80;0.70;;;25.90;40.40;;;;;;5027768;28;20189;-76
2022/08/03 04:50:23;;;;;;;1.70;0.70;;;25.90;40.90;;;;;;5052713;28;20275;-74
2022/08/03 04:52:50;;;;;;;1.17;0.60;;;25.80;39.70;;;;;;5039978;28;20180;-78
2022/08/03 04:55:32;;;;;;;3.10;0.77;;;26.00;39.30;;;;;;5049064;28;20172;-79
2022/08/03 04:58:00;;;;;;;2.50;0.80;;;26.20;38.80;;;;;;5043292;28;20254;-75
2022/08/03 05:00:28;;;;;;;3.20;1.20;;;26.50;38.40;;;;;;5052661;28;20218;-75
2022/08/03 05:02:55;;;;;;;5.43;1.30;;;26.50;39.00;;;;;;5026443;28;20268;-77
2022/08/03 05:05:23;;;;;;;3.87;1.00;;;26.90;39.70;;;;;;5049945;28;20226;-77
2022/08/03 05:07:51;;;;;;;3.63;0.90;;;27.10;38.90;;;;;;5031007;28;20184;-77
2022/08/03 05:10:18;;;;;;;4.97;1.20;;;27.20;39.80;;;;;;5035894;28;20187;-77
2022/08/03 05:12:51;;;;;;;4.10;1.23;;;27.40;39.50;;;;;;5030848;28;20193;-74
2022/08/03 05:15:18;;;;;;;4.57;1.30;;;27.20;39.70;;;;;;5032783;28;20180;-79
2022/08/03 05:17:45;;;;;;;3.33;0.90;;;27.30;39.60;;;;;;5025406;28;20199;-74
2022/08/03 05:20:13;;;;;;;3.27;0.80;;;26.80;39.60;;;;;;5035327;28;20212;-76
2022/08/03 05:22:40;;;;;;;5.67;1.10;;;26.70;39.10;;;;;;5020027;28;20266;-78
2022/08/03 05:25:08;;;;;;;5.30;1.00;;;26.40;39.40;;;;;;5028017;28;20177;-76
2022/08/03 05:27:35;;;;;;;3.33;0.90;;;26.10;40.20;;;;;;5027793;28;20184;-73
2022/08/03 05:30:03;;;;;;;1.50;0.77;;;25.10;41.40;;;;;;5047232;28;20176;-76
2022/08/03 05:32:30;;;;;;;6.47;1.50;;;24.60;43.10;;;;;;5034203;28;20177;-76
2022/08/03 05:34:58;;;;;;;1.83;0.70;;;24.30;44.10;;;;;;5035545;28;20188;-74
2022/08/03 05:37:25;;;;;;;2.83;0.80;;;24.30;43.80;;;;;;5029913;28;20179;-75
2022/08/03 05:39:54;;;;;;;3.67;0.90;;;24.40;43.80;;;;;;5031300;28;20315;-75
2022/08/03 05:42:21;;;;;;;1.50;0.80;;;24.10;44.10;;;;;;5034551;28;20563;-76
2022/08/03 05:44:48;;;;;;;6.47;1.07;;;24.40;43.30;;;;;;5039683;28;20179;-75
2022/08/03 05:47:16;;;;;;;2.20;1.00;;;24.90;42.90;;;;;;5050576;28;20176;-74
2022/08/03 05:49:43;;;;;;;3.30;0.80;;;25.00;42.60;;;;;;5038609;28;20179;-74
2022/08/03 05:52:10;;;;;;;3.83;1.10;;;25.00;42.30;;;;;;5051817;28;20176;-75
2022/08/03 05:54:38;;;;;;;2.10;0.90;;;25.30;42.20;;;;;;5041017;28;20252;-75
2022/08/03 05:57:05;;;;;;;7.67;1.30;;;25.80;40.50;;;;;;5051794;28;20180;-76
2022/08/03 05:59:33;;;;;;;3.90;1.10;;;26.10;40.10;;;;;;5049888;28;20648;-75
2022/08/03 06:02:00;;;;;;;3.87;0.80;;;26.00;40.30;;;;;;5026129;28;20193;-76
2022/08/03 06:04:28;;;;;;;4.87;1.20;;;26.30;39.80;;;;;;5023457;28;20655;-72
2022/08/03 06:06:55;;;;;;;3.43;1.00;;;26.30;40.00;;;;;;5031118;28;20175;-75
2022/08/03 06:09:22;;;;;;;7.83;1.37;;;25.60;41.50;;;;;;5024074;28;20639;-77
2022/08/03 06:11:50;;;;;;;4.40;1.00;;;25.60;41.90;;;;;;5032932;28;20185;-73
2022/08/03 06:14:17;;;;;;;4.00;1.10;;;25.80;41.70;;;;;;5047041;28;20242;-76
2022/08/03 06:16:45;;;;;;;2.73;0.80;;;25.10;42.90;;;;;;5042815;28;20270;-74
2022/08/03 06:19:12;;;;;;;2.60;0.97;;;24.40;44.10;;;;;;5025581;28;20264;-74
2022/08/03 06:21:39;;;;;;;3.00;0.90;;;23.90;45.10;;;;;;5039093;28;20224;-72
2022/08/03 06:24:07;;;;;;;1.63;0.80;;;23.50;46.40;;;;;;5048082;28;20184;-75
2022/08/03 06:26:34;;;;;;;2.90;0.90;;;23.30;46.90;;;;;;5033368;28;20184;-75
2022/08/03 06:29:02;;;;;;;2.07;0.80;;;23.10;47.40;;;;;;5042211;28;20179;-75
2022/08/03 06:31:29;;;;;;;2.63;0.70;;;23.10;47.60;;;;;;5047859;28;20245;-76
2022/08/03 06:33:56;;;;;;;1.47;0.90;;;23.10;47.90;;;;;;5042395;28;20180;-73
2022/08/03 06:36:30;;;;;;;3.60;1.03;;;23.00;47.90;;;;;;5046933;28;20642;-73
2022/08/03 06:38:58;;;;;;;1.40;0.80;;;22.80;48.50;;;;;;5049849;28;20310;-74
2022/08/03 06:41:27;;;;;;;1.37;0.77;;;22.70;48.60;;;;;;5044358;28;20542;-73
2022/08/03 06:43:54;;;;;;;2.37;0.90;;;22.70;49.10;;;;;;5044636;28;20670;-73
2022/08/03 06:46:22;;;;;;;4.37;1.07;;;22.60;49.30;;;;;;5032258;28;20177;-73
2022/08/03 06:48:49;;;;;;;2.27;0.90;;;22.40;49.50;;;;;;5035805;28;20181;-78
2022/08/03 06:51:17;;;;;;;2.13;1.00;;;22.40;49.90;;;;;;5045568;28;20615;-73
2022/08/03 06:53:44;;;;;;;5.00;1.10;;;22.30;50.10;;;;;;5030660;28;20605;-75
2022/08/03 06:56:11;;;;;;;5.37;1.10;;;22.30;50.30;;;;;;5022358;28;20667;-75
2022/08/03 06:58:39;;;;;;;3.20;1.30;;;22.10;50.50;;;;;;5035846;28;20191;-75
2022/08/03 07:01:06;;;;;;;2.17;0.80;;;22.10;50.60;;;;;;5049619;28;20184;-73
2022/08/03 07:03:34;;;;;;;1.07;0.70;;;22.00;50.50;;;;;;5049826;28;20204;-75
2022/08/03 07:06:01;;;;;;;2.30;1.20;;;22.00;50.60;;;;;;5029520;28;20177;-74
2022/08/03 07:08:28;;;;;;;4.87;1.20;;;21.90;51.20;;;;;;5048132;28;20191;-74
2022/08/03 07:10:56;;;;;;;1.50;1.30;;;21.80;51.60;;;;;;5049020;28;20453;-75
2022/08/03 07:13:23;;;;;;;2.33;1.30;;;21.80;52.00;;;;;;5054386;28;20180;-76
2022/08/03 07:15:50;;;;;;;2.30;1.10;;;21.60;52.30;;;;;;5051497;28;20522;-75
2022/08/03 07:18:18;;;;;;;2.60;1.10;;;21.50;53.50;;;;;;5034780;28;20187;-76
2022/08/03 07:20:45;;;;;;;9.83;1.47;;;21.30;55.80;;;;;;5033772;28;20263;-75
2022/08/03 07:23:13;;;;;;;4.87;1.40;;;21.20;58.10;;;;;;5031372;28;20201;-75
2022/08/03 07:25:40;;;;;;;3.30;1.53;;;21.00;59.90;;;;;;5034625;28;20177;-75
2022/08/03 07:28:07;;;;;;;4.10;1.40;;;20.80;60.80;;;;;;5043057;28;20180;-75
2022/08/03 07:30:35;;;;;;;5.13;1.40;;;20.70;61.60;;;;;;5041441;28;20231;-75
2022/08/03 07:33:02;;;;;;;3.53;1.80;;;20.40;62.10;;;;;;5054340;28;20179;-74
2022/08/03 07:35:30;;;;;;;4.97;1.63;;;20.40;62.60;;;;;;5036751;28;20180;-79
2022/08/03 07:37:57;;;;;;;3.57;1.80;;;20.30;63.30;;;;;;5021890;28;20677;-75
2022/08/03 07:40:24;;;;;;;5.13;1.40;;;20.20;63.80;;;;;;5026453;28;20180;-79
2022/08/03 07:42:52;;;;;;;5.37;1.60;;;20.10;64.50;;;;;;5052041;28;20552;-80
2022/08/03 07:45:22;;;;;;;3.23;1.20;;;20.00;65.00;;;;;;5036866;28;20181;-76
2022/08/03 07:47:49;;;;;;;3.83;1.60;;;19.90;65.40;;;;;;5040288;28;20176;-82
2022/08/03 07:50:16;;;;;;;9.50;2.30;;;19.80;66.10;;;;;;5042762;28;20203;-76
2022/08/03 07:52:54;;;;;;;7.63;1.93;;;19.70;66.70;;;;;;5037471;28;20188;-79
2022/08/03 07:55:24;;;;;;;7.47;1.87;;;19.70;67.20;;;;;;5029132;28;20578;-79
2022/08/03 07:58:14;;;;;;;4.87;2.00;;;19.60;67.70;;;;;;5025987;28;20168;-77
2022/08/03 08:00:43;;;;;;;8.57;2.30;;;19.50;68.10;;;;;;5043946;28;20277;-76
2022/08/03 08:03:12;;;;;;;9.57;2.07;;;19.40;68.30;;;;;;5050262;28;20214;-82
2022/08/03 08:05:39;;;;;;;5.47;1.80;;;19.30;68.40;;;;;;5022460;28;20184;-79
2022/08/03 08:08:07;;;;;;;10.63;2.07;;;19.30;68.50;;;;;;5039561;28;20196;-76
2022/08/03 08:10:35;;;;;;;3.80;1.80;;;19.30;68.50;;;;;;5046455;28;20652;-76
2022/08/03 08:13:03;;;;;;;5.00;1.63;;;19.30;68.20;;;;;;5052213;28;20180;-74
2022/08/03 08:15:31;;;;;;;4.60;2.00;;;19.20;67.60;;;;;;5047735;28;20187;-81
2022/08/03 08:18:01;;;;;;;4.40;1.80;;;19.30;66.20;;;;;;5047454;28;20532;-77
2022/08/03 08:20:32;;;;;;;2.93;1.70;;;19.50;64.60;;;;;;5042196;28;20202;-80
2022/08/03 08:23:06;;;;;;;2.70;1.40;;;19.70;62.80;;;;;;5052500;28;20290;-80
2022/08/03 08:25:34;;;;;;;3.43;1.40;;;19.70;62.40;;;;;;5029231;28;20199;-79
2022/08/03 08:28:04;;;;;;;1.70;1.10;;;19.80;61.80;;;;;;5039240;28;20254;-77
2022/08/03 08:30:33;;;;;;;6.00;1.63;;;19.80;61.70;;;;;;5041075;28;20722;-79
2022/08/03 08:33:00;;;;;;;2.47;1.37;;;19.80;61.70;;;;;;5053202;28;20622;-78
2022/08/03 08:35:28;;;;;;;3.50;1.53;;;19.90;61.00;;;;;;5049759;28;20202;-83
2022/08/03 08:37:55;;;;;;;5.20;1.80;;;19.90;61.00;;;;;;5021314;28;20189;-74
2022/08/03 08:40:23;;;;;;;1.90;1.50;;;19.80;61.00;;;;;;5034482;28;20192;-75
2022/08/03 08:42:50;;;;;;;2.57;1.63;;;19.80;61.10;;;;;;5040356;28;20295;-75
2022/08/03 08:45:18;;;;;;;2.33;1.40;;;19.80;61.10;;;;;;5020276;28;20178;-77
2022/08/03 08:47:47;;;;;;;5.03;1.50;;;19.80;61.10;;;;;;5035735;28;20583;-76
2022/08/03 08:50:19;;;;;;;3.90;1.30;;;19.80;61.10;;;;;;5047958;28;20186;-74
2022/08/03 08:52:49;;;;;;;3.10;1.77;;;19.80;61.00;;;;;;5052044;28;20172;-79
2022/08/03 08:55:25;;;;;;;7.40;2.07;;;19.70;61.20;;;;;;5042547;28;20184;-80
2022/08/03 08:58:03;;;;;;;2.53;1.67;;;19.80;61.00;;;;;;5051624;28;20180;-83
2022/08/03 09:00:31;;;;;;;4.93;1.70;;;19.80;60.80;;;;;;5047837;28;20190;-77
2022/08/03 09:03:00;;;;;;;4.40;1.90;;;19.80;61.00;;;;;;5026918;28;20302;-79
2022/08/03 09:05:31;;;;;;;2.20;1.43;;;19.80;61.00;;;;;;5033643;28;20589;-77
2022/08/03 09:07:59;;;;;;;3.13;1.77;;;19.70;61.00;;;;;;5043733;28;20210;-76
2022/08/03 09:10:26;;;;;;;6.67;1.70;;;19.60;61.40;;;;;;5047029;28;20230;-77
2022/08/03 09:12:54;;;;;;;4.97;1.90;;;19.60;62.00;;;;;;5052461;28;20184;-75
2022/08/03 09:15:27;;;;;;;3.80;1.70;;;19.50;62.50;;;;;;5045112;28;20211;-75
2022/08/03 09:17:56;;;;;;;2.60;1.60;;;19.40;63.00;;;;;;5030080;28;20474;-75
2022/08/03 09:20:26;;;;;;;2.67;1.83;;;19.30;63.50;;;;;;5036043;28;20184;-77
2022/08/03 09:22:59;;;;;;;4.53;1.60;;;19.20;64.30;;;;;;5044393;28;20534;-76
2022/08/03 09:25:27;;;;;;;5.53;1.90;;;19.10;65.00;;;;;;5042091;28;20187;-77
2022/08/03 09:28:03;;;;;;;5.80;1.83;;;19.00;65.70;;;;;;5029464;28;20252;-76
2022/08/03 09:30:31;;;;;;;4.73;2.00;;;18.90;66.00;;;;;;5038881;28;20557;-76
2022/08/03 09:33:06;;;;;;;2.83;2.03;;;18.80;66.30;;;;;;5041138;28;20198;-78
2022/08/03 09:35:41;;;;;;;4.10;1.70;;;18.80;66.30;;;;;;5037178;28;20313;-75
2022/08/03 09:38:17;;;;;;;3.47;1.70;;;18.80;65.90;;;;;;5041425;28;20182;-77
2022/08/03 09:40:45;;;;;;;5.77;2.00;;;18.90;64.70;;;;;;5041979;28;20254;-75
2022/08/03 09:43:13;;;;;;;5.63;1.80;;;19.00;64.80;;;;;;5044909;28;20273;-75
2022/08/03 09:45:42;;;;;;;3.63;1.77;;;19.00;65.10;;;;;;5036520;28;20592;-76
2022/08/03 09:48:29;;;;;;;4.63;1.83;;;18.90;65.60;;;;;;5052285;28;20197;-73
2022/08/03 09:51:00;;;;;;;3.60;1.57;;;19.00;64.70;;;;;;5035464;28;20185;-72
2022/08/03 09:53:27;;;;;;;2.17;1.57;;;19.10;63.60;;;;;;5052393;28;20176;-74
2022/08/03 09:56:00;;;;;;;4.10;1.50;;;19.30;62.60;;;;;;5039017;28;20189;-76
2022/08/03 09:58:30;;;;;;;3.80;1.53;;;19.40;62.10;;;;;;5052185;28;20275;-76
2022/08/03 10:01:02;;;;;;;1.57;1.23;;;19.50;61.40;;;;;;5052362;28;20176;-74
2022/08/03 10:03:32;;;;;;;3.23;1.70;;;19.60;61.50;;;;;;5048925;28;20243;-74
2022/08/03 10:06:15;;;;;;;2.80;1.70;;;19.50;61.40;;;;;;5035404;28;20179;-74
2022/08/03 10:08:43;;;;;;;3.10;1.60;;;19.60;61.30;;;;;;5055197;28;20175;-73
2022/08/03 10:11:11;;;;;;;4.00;1.83;;;19.50;61.60;;;;;;5050983;28;20184;-77
2022/08/03 10:13:39;;;;;;;2.30;1.47;;;19.50;61.30;;;;;;5052022;28;20707;-75
2022/08/03 10:16:06;;;;;;;3.33;1.40;;;19.60;61.20;;;;;;5046301;28;20180;-73
2022/08/03 10:18:34;;;;;;;4.63;1.80;;;19.60;61.00;;;;;;5052337;28;20180;-72
2022/08/03 10:21:07;;;;;;;4.27;1.77;;;19.50;61.30;;;;;;5039806;28;20260;-79
2022/08/03 10:23:37;;;;;;;5.30;1.70;;;19.50;61.40;;;;;;5049256;28;20211;-72
2022/08/03 10:26:06;;;;;;;2.17;1.60;;;19.50;61.40;;;;;;5055900;28;20260;-73
2022/08/03 10:28:39;;;;;;;1.57;1.13;;;19.50;61.10;;;;;;5044086;28;20188;-72
2022/08/03 10:31:07;;;;;;;7.20;6.43;;;19.50;61.00;;;;;;5055817;28;20510;-73
2022/08/03 10:33:41;;;;;;;4.30;1.60;;;19.50;61.00;;;;;;5053170;28;20208;-72
2022/08/03 10:36:10;;;;;;;3.83;2.10;;;19.60;60.80;;;;;;5045570;28;20267;-75
2022/08/03 10:38:51;;;;;;;2.70;1.40;;;19.50;61.00;;;;;;5048397;28;20310;-73
2022/08/03 10:41:24;;;;;;;3.20;1.50;;;19.50;61.20;;;;;;5045188;28;20682;-75
2022/08/03 10:44:07;;;;;;;1.77;1.30;;;19.30;61.50;;;;;;5042393;28;20208;-76
2022/08/03 10:46:38;;;;;;;4.37;1.30;;;19.30;61.50;;;;;;5055243;28;20198;-74
2022/08/03 10:49:06;;;;;;;2.47;1.10;;;19.30;61.50;;;;;;5055303;28;20179;-71
2022/08/03 10:51:34;;;;;;;2.77;1.70;;;19.40;61.40;;;;;;5046333;28;20204;-74
2022/08/03 10:54:01;;;;;;;4.20;1.50;;;19.40;61.30;;;;;;5041472;28;20172;-72
2022/08/03 10:59:38;;;;;;;4.67;3.10;;;19.30;61.40;;;;;;5040928;28;20196;-73
2022/08/03 11:02:09;;;;;;;5.03;3.60;;;19.40;61.40;;;;;;5047512;28;20211;-79
2022/08/03 11:04:36;;;;;;;3.67;1.87;;;19.30;61.70;;;;;;5038104;28;20242;-75
2022/08/03 11:07:21;;;;;;;4.53;2.00;;;19.20;62.00;;;;;;5046415;28;20284;-75
2022/08/03 11:09:51;;;;;;;3.27;1.20;;;19.30;61.90;;;;;;5049271;28;20188;-80
2022/08/03 11:12:31;;;;;;;7.20;1.40;;;19.30;61.90;;;;;;5034696;28;20177;-75
2022/08/03 11:15:04;;;;;;;4.10;1.33;;;19.20;62.00;;;;;;5017353;28;20575;-74
2022/08/03 11:17:35;;;;;;;5.73;1.73;;;19.20;62.10;;;;;;5054683;28;20179;-72
2022/08/03 11:20:04;;;;;;;2.20;1.40;;;19.20;62.00;;;;;;5018157;28;20194;-75
2022/08/03 11:22:53;;;;;;;2.60;1.00;;;19.20;62.30;;;;;;5041899;28;20311;-73
2022/08/03 11:25:20;;;;;;;2.77;1.40;;;19.20;62.40;;;;;;5032030;28;20189;-73
2022/08/03 11:27:47;;;;;;;4.73;1.40;;;19.10;62.70;;;;;;5038710;28;20169;-74
2022/08/03 11:30:21;;;;;;;3.77;1.90;;;19.10;62.60;;;;;;5047294;28;20190;-73
2022/08/03 11:32:50;;;;;;;3.57;1.50;;;19.10;62.50;;;;;;5046412;28;20184;-74
2022/08/03 11:35:34;;;;;;;3.40;1.83;;;19.10;62.80;;;;;;5037427;28;20648;-74
2022/08/03 11:38:06;;;;;;;8.10;1.87;;;19.00;63.00;;;;;;5036222;28;20180;-73
2022/08/03 11:40:44;;;;;;;3.73;1.77;;;19.10;62.90;;;;;;5037694;28;20654;-74
2022/08/03 11:43:30;;;;;;;3.03;1.67;;;19.00;63.20;;;;;;5026964;28;20250;-74
2022/08/03 11:46:20;;;;;;;2.27;1.53;;;19.00;63.30;;;;;;5046363;28;20180;-74
2022/08/03 11:48:49;;;;;;;2.60;1.50;;;18.90;63.60;;;;;;5041915;28;20238;-73
2022/08/03 11:51:27;;;;;;;4.67;1.33;;;18.90;64.00;;;;;;5048611;28;20180;-74
2022/08/03 11:53:58;;;;;;;3.60;1.77;;;18.90;63.90;;;;;;5036346;28;20183;-74
2022/08/03 11:56:26;;;;;;;2.00;1.43;;;18.80;64.10;;;;;;5050511;28;20555;-74
2022/08/03 11:58:55;;;;;;;1.70;1.10;;;18.80;64.20;;;;;;5053481;28;20183;-77
2022/08/03 12:01:24;;;;;;;3.50;2.10;;;18.80;64.20;;;;;;5038080;28;20180;-75
2022/08/03 12:03:52;;;;;;;2.63;1.57;;;18.80;64.40;;;;;;5041058;28;20207;-74
2022/08/03 12:06:19;;;;;;;4.20;1.63;;;18.80;64.40;;;;;;5046904;28;20172;-73
2022/08/03 12:08:47;;;;;;;2.83;1.53;;;18.80;64.80;;;;;;5051861;28;20183;-75
2022/08/03 12:11:15;;;;;;;2.47;1.67;;;18.70;65.10;;;;;;5030144;28;20267;-73
2022/08/03 12:13:48;;;;;;;2.93;1.30;;;18.70;65.30;;;;;;5050718;28;20184;-74
2022/08/03 12:16:23;;;;;;;3.47;1.27;;;18.70;65.30;;;;;;5053855;28;20184;-73
2022/08/03 12:19:03;;;;;;;4.10;1.47;;;18.70;65.30;;;;;;5053482;28;20264;-73
2022/08/03 12:21:31;;;;;;;3.60;1.63;;;18.80;65.20;;;;;;5041067;28;20267;-76
2022/08/03 12:24:01;;;;;;;5.90;1.57;;;18.70;65.60;;;;;;5052984;28;20226;-73
2022/08/03 12:26:50;;;;;;;4.47;1.50;;;18.60;66.10;;;;;;5053319;28;20681;-74
2022/08/03 12:29:21;;;;;;;2.40;1.53;;;18.50;66.30;;;;;;5051845;28;20186;-76
2022/08/03 12:31:49;;;;;;;1.57;1.40;;;18.50;66.60;;;;;;5052615;28;20176;-75
2022/08/03 12:34:16;;;;;;;7.83;1.60;;;18.40;66.90;;;;;;5053102;28;20183;-74
2022/08/03 12:36:58;;;;;;;2.97;1.70;;;18.40;66.90;;;;;;5053254;28;20643;-74
2022/08/03 12:39:28;;;;;;;4.70;1.70;;;18.40;67.10;;;;;;5049472;28;20262;-74
2022/08/03 12:41:56;;;;;;;3.60;1.70;;;18.30;67.40;;;;;;5045398;28;20184;-74
2022/08/03 12:44:35;;;;;;;4.83;1.30;;;18.30;67.60;;;;;;5053073;28;20180;-78
2022/08/03 12:47:05;;;;;;;2.67;1.63;;;18.20;68.00;;;;;;5047465;28;20207;-75
2022/08/03 12:49:50;;;;;;;2.63;1.57;;;18.20;68.30;;;;;;5047528;28;20183;-77
2022/08/03 12:52:19;;;;;;;4.73;1.70;;;18.10;68.50;;;;;;5054055;28;20540;-74
2022/08/03 12:55:00;;;;;;;6.93;1.50;;;18.20;68.40;;;;;;5040035;28;20175;-75
2022/08/03 12:57:41;;;;;;;2.07;1.47;;;18.20;68.40;;;;;;5052604;28;20631;-74
2022/08/03 13:00:17;;;;;;;3.40;1.80;;;18.20;68.60;;;;;;5051348;28;20629;-75
2022/08/03 13:02:45;;;;;;;5.23;1.50;;;18.20;68.50;;;;;;5052561;28;20192;-76
2022/08/03 13:05:14;;;;;;;2.30;1.70;;;18.20;68.70;;;;;;5034884;28;20195;-75
2022/08/03 13:07:42;;;;;;;2.73;1.60;;;18.10;68.90;;;;;;5043236;28;20179;-75
2022/08/03 13:10:10;;;;;;;3.77;1.80;;;18.00;69.10;;;;;;5047208;28;20260;-80
2022/08/03 13:12:50;;;;;;;4.50;1.57;;;18.10;69.30;;;;;;5052658;28;20189;-83
2022/08/03 13:15:18;;;;;;;3.23;1.60;;;18.10;69.40;;;;;;5052752;28;20168;-78
2022/08/03 13:17:45;;;;;;;3.97;1.70;;;18.00;69.60;;;;;;5052493;28;20211;-74